North Point, Canada
Current Conditions -  °F | °C
As of 8:00 PM on Monday 22 Dec 2014 (Local Time) from CYYG Reporting Station
Light Snow Light Snow  
Wind Chill: 27°   Ceiling: 1800
Heat Index: 27°   Visibility: 15mi
Dew Point: 19°   Wind: 3mph
Humidity: 74%   Direction: 330°NNW
Pressure: 30.49"   Gusts: NA
Location:  46.39°N, 62.11°W
Report Text: CYYG 230000Z 33003KT 270V350 15SM -SG OVC018 M03/M07 A3049 RMK SC8 SLP328
Loading
Personal Weather Stations






























Interactive Weather Map New forecast layout! Learn more

10-Day Weather Forecast

Advertisements
Track Severe Weather on mobile